createdAt,value
2022-12-19T00:24:36.215Z,-4.90
2022-12-19T00:44:32.928Z,-4.90
2022-12-19T01:48:07.032Z,-5.30
2022-12-19T01:55:17.177Z,-5.40
2022-12-19T02:02:54.282Z,-5.50
2022-12-19T02:06:00.312Z,-5.40
2022-12-19T02:12:52.821Z,-5.50
2022-12-19T02:16:03.301Z,-5.40
2022-12-19T02:18:43.986Z,-5.50
2022-12-19T02:21:34.016Z,-5.60
2022-12-19T02:24:40.809Z,-5.50
2022-12-19T02:28:15.647Z,-5.50
2022-12-19T02:31:16.612Z,-5.50
2022-12-19T02:34:14.905Z,-5.60
2022-12-19T02:36:58.948Z,-5.60
2022-12-19T02:39:46.606Z,-5.60
2022-12-19T02:42:46.914Z,-6.40
2022-12-19T02:45:28.907Z,-6.20
2022-12-19T02:50:59.989Z,-5.80
2022-12-19T02:53:29.043Z,-5.20
2022-12-19T02:56:25.675Z,-5.70
2022-12-19T02:59:09.779Z,-5.80
2022-12-19T03:01:47.061Z,-5.50
2022-12-19T03:04:30.923Z,-5.80
2022-12-19T03:07:05.344Z,-6.00
2022-12-19T03:09:51.501Z,-5.40
2022-12-19T03:16:33.770Z,-5.90
2022-12-19T03:19:17.607Z,-5.90
2022-12-19T03:21:49.811Z,-5.90
2022-12-19T03:24:54.759Z,-5.60
2022-12-19T03:31:43.399Z,-6.50
2022-12-19T03:34:32.330Z,-6.00
2022-12-19T03:37:22.037Z,-6.00
2022-12-19T03:39:56.869Z,-6.00
2022-12-19T03:42:48.941Z,-6.20
2022-12-19T03:45:32.505Z,-6.10
2022-12-19T03:48:26.115Z,-6.10
2022-12-19T03:51:07.379Z,-6.20
2022-12-19T03:53:54.176Z,-6.20
2022-12-19T03:56:31.829Z,-6.20
2022-12-19T03:59:06.356Z,-6.20
2022-12-19T04:01:41.260Z,-6.40
2022-12-19T04:04:11.584Z,-6.30
2022-12-19T04:06:41.802Z,-6.30
2022-12-19T04:09:20.740Z,-6.00
2022-12-19T04:11:53.547Z,-6.40
2022-12-19T04:14:27.008Z,-6.50
2022-12-19T04:17:02.952Z,-6.20
2022-12-19T04:19:39.870Z,-6.30
2022-12-19T04:22:16.318Z,-6.10
2022-12-19T04:24:49.498Z,-6.60
2022-12-19T04:27:18.684Z,-6.60
2022-12-19T04:29:48.192Z,-6.60
2022-12-19T04:32:18.518Z,-6.60
2022-12-19T04:34:47.028Z,-6.70
2022-12-19T04:37:15.787Z,-6.90
2022-12-19T04:39:45.703Z,-6.70
2022-12-19T04:42:14.609Z,-6.80
2022-12-19T04:44:43.068Z,-6.90
2022-12-19T04:47:11.558Z,-6.80
2022-12-19T04:49:39.987Z,-6.40
2022-12-19T04:52:08.515Z,-6.70
2022-12-19T04:54:36.853Z,-7.00
2022-12-19T04:57:06.609Z,-6.50
2022-12-19T04:59:35.002Z,-6.80
2022-12-19T05:02:03.429Z,-6.80
2022-12-19T05:04:32.114Z,-6.90
2022-12-19T05:07:00.720Z,-6.50
2022-12-19T05:09:29.445Z,-6.90
2022-12-19T05:11:57.933Z,-6.80
2022-12-19T05:14:43.120Z,-7.00
2022-12-19T05:17:11.579Z,-6.90
2022-12-19T05:19:40.210Z,-7.00
2022-12-19T05:22:08.995Z,-6.90
2022-12-19T05:24:37.398Z,-6.50
2022-12-19T05:27:05.812Z,-6.90
2022-12-19T05:29:34.869Z,-7.00
2022-12-19T05:32:08.297Z,-6.70
2022-12-19T05:34:36.981Z,-6.50
2022-12-19T05:37:05.434Z,-7.00
2022-12-19T05:39:33.833Z,-7.00
2022-12-19T05:42:02.767Z,-7.00
2022-12-19T05:44:31.387Z,-6.80
2022-12-19T05:47:00.195Z,-5.80
2022-12-19T05:49:45.330Z,-6.80
2022-12-19T05:52:14.120Z,-6.50
2022-12-19T05:54:42.933Z,-6.40
2022-12-19T05:57:11.722Z,-7.00
2022-12-19T05:59:40.094Z,-6.80
2022-12-19T06:02:08.578Z,-7.10
2022-12-19T06:04:38.506Z,-7.10
2022-12-19T06:07:23.184Z,-7.10
2022-12-19T06:09:51.997Z,-7.10
2022-12-19T06:12:23.089Z,-6.90
2022-12-19T06:14:51.473Z,-6.10
2022-12-19T06:17:19.883Z,-6.90
2022-12-19T06:19:48.341Z,-7.20
2022-12-19T06:22:17.006Z,-7.20
2022-12-19T06:24:47.027Z,-7.20
2022-12-19T06:27:15.851Z,-6.20
2022-12-19T06:29:44.705Z,-6.70
2022-12-19T06:32:13.145Z,-7.20
2022-12-19T06:37:30.035Z,-6.70
2022-12-19T06:39:59.763Z,-7.20
2022-12-19T06:42:27.145Z,-7.40
2022-12-19T06:44:57.115Z,-7.40
2022-12-19T06:47:26.292Z,-7.40
2022-12-19T06:49:55.118Z,-7.40
2022-12-19T06:52:23.652Z,-7.50
2022-12-19T06:54:52.419Z,-7.40
2022-12-19T06:57:38.053Z,-7.40
2022-12-19T07:00:07.265Z,-6.80
2022-12-19T07:02:36.087Z,-7.50
2022-12-19T07:05:07.803Z,-7.30
2022-12-19T07:07:36.574Z,-7.50
2022-12-19T07:10:07.274Z,-7.50
2022-12-19T07:12:55.715Z,-7.50
2022-12-19T07:15:24.885Z,-7.60
2022-12-19T07:17:53.400Z,-7.70
2022-12-19T07:20:23.128Z,-7.60
2022-12-19T07:22:52.011Z,-6.60
2022-12-19T07:25:20.637Z,-7.60
2022-12-19T07:27:49.575Z,-7.60
2022-12-19T07:30:20.011Z,-7.60
2022-12-19T07:32:49.025Z,-7.70
2022-12-19T07:35:17.507Z,-8.20
2022-12-19T07:37:45.881Z,-7.20
2022-12-19T07:40:14.504Z,-7.60
2022-12-19T07:42:43.203Z,-7.70
2022-12-19T07:45:12.854Z,-7.70
2022-12-19T07:47:42.703Z,-7.70
2022-12-19T07:50:11.933Z,-7.10
2022-12-19T07:52:41.297Z,-7.00
2022-12-19T07:55:10.386Z,-7.70
2022-12-19T07:57:38.927Z,-7.70
2022-12-19T08:00:09.232Z,-7.60
2022-12-19T08:02:42.425Z,-7.70
2022-12-19T08:05:11.568Z,-7.70
2022-12-19T08:07:40.958Z,-7.50
2022-12-19T08:10:12.674Z,-7.90
2022-12-19T08:12:53.005Z,-7.60
2022-12-19T08:15:21.473Z,-7.60
2022-12-19T08:17:51.394Z,-7.60
2022-12-19T08:20:20.896Z,-7.60
2022-12-19T08:22:49.637Z,-7.20
2022-12-19T08:25:18.394Z,-7.60
2022-12-19T08:27:47.410Z,-7.20
2022-12-19T08:30:16.329Z,-7.20
2022-12-19T08:32:45.357Z,-7.20
2022-12-19T08:35:15.663Z,-7.50
2022-12-19T08:37:44.789Z,-7.50
2022-12-19T08:40:14.984Z,-6.50
2022-12-19T08:42:43.699Z,-7.50
2022-12-19T08:45:12.433Z,-6.90
2022-12-19T08:47:40.860Z,-6.50
2022-12-19T08:50:09.966Z,-7.40
2022-12-19T08:52:39.954Z,-7.30
2022-12-19T08:55:10.241Z,-7.30
2022-12-19T08:57:38.723Z,-7.30
2022-12-19T09:00:09.550Z,-7.30
2022-12-19T09:02:39.760Z,-7.30
2022-12-19T09:06:00.543Z,-7.30
2022-12-19T09:07:59.165Z,-7.20
2022-12-19T09:10:30.417Z,-7.40
2022-12-19T09:12:58.968Z,-7.20
2022-12-19T09:15:30.495Z,-7.00
2022-12-19T09:17:59.114Z,-7.10
2022-12-19T09:20:30.816Z,-6.90
2022-12-19T09:23:00.645Z,-6.90
2022-12-19T09:25:37.090Z,-6.70
2022-12-19T09:30:58.053Z,-6.90
2022-12-19T09:33:28.986Z,-6.90
2022-12-19T09:35:58.162Z,-6.00
2022-12-19T09:38:43.137Z,-6.90
2022-12-19T09:42:14.197Z,-6.50
2022-12-19T09:45:06.936Z,-6.80
2022-12-19T09:47:42.772Z,-6.80
2022-12-19T09:50:32.925Z,-6.80
2022-12-19T09:53:08.221Z,-5.80
2022-12-19T09:55:42.561Z,-6.70
2022-12-19T09:58:16.832Z,-6.10
2022-12-19T10:00:48.698Z,-6.70
2022-12-19T10:03:39.737Z,-6.50
2022-12-19T10:07:07.917Z,-6.50
2022-12-19T10:10:01.432Z,-6.00
2022-12-19T10:12:44.611Z,-6.20
2022-12-19T10:15:24.241Z,-6.50
2022-12-19T10:18:44.037Z,-6.20
2022-12-19T10:21:59.002Z,-6.40
2022-12-19T10:25:31.620Z,-6.50
2022-12-19T10:28:13.935Z,-6.40
2022-12-19T10:30:51.171Z,-6.40
2022-12-19T10:33:34.195Z,-6.40
2022-12-19T10:37:20.935Z,-6.20
2022-12-19T10:39:46.611Z,-6.20
2022-12-19T10:42:31.307Z,-6.30
2022-12-19T10:45:20.992Z,-5.50
2022-12-19T10:48:00.914Z,-5.80
2022-12-19T10:51:06.990Z,-6.30
2022-12-19T10:53:43.937Z,-6.30
2022-12-19T10:56:33.215Z,-6.20
2022-12-19T10:59:26.587Z,-6.20
2022-12-19T11:02:24.472Z,-6.30
2022-12-19T11:04:54.386Z,-6.20
2022-12-19T11:07:38.808Z,-5.90
2022-12-19T11:12:17.945Z,-6.10
2022-12-19T11:18:21.260Z,-6.30
2022-12-19T11:23:03.474Z,-6.10
2022-12-19T11:27:32.165Z,-6.50
2022-12-19T11:30:37.765Z,-6.10
2022-12-19T11:30:46.434Z,-6.10
2022-12-19T11:30:46.941Z,-6.10
2022-12-19T11:34:39.293Z,-6.30
2022-12-19T11:37:23.442Z,-5.40
2022-12-19T11:40:00.242Z,-6.00
2022-12-19T11:43:41.854Z,-6.00
2022-12-19T11:45:52.826Z,-6.00
2022-12-19T11:48:38.940Z,-6.10
2022-12-19T11:51:44.504Z,-6.00
2022-12-19T11:54:43.676Z,-5.90
2022-12-19T11:57:29.211Z,-5.90
2022-12-19T12:00:04.657Z,-6.00
2022-12-19T12:03:51.805Z,-5.00
2022-12-19T12:08:07.319Z,-5.80
2022-12-19T12:18:41.619Z,-6.00
2022-12-19T12:20:24.408Z,-5.90
2022-12-19T12:31:07.691Z,-5.50
2022-12-19T12:31:08.711Z,-5.90
2022-12-19T12:31:46.049Z,-5.90
2022-12-19T12:31:49.209Z,-5.90
2022-12-19T12:35:33.627Z,-5.90
2022-12-19T12:38:28.464Z,-5.90
2022-12-19T12:45:42.202Z,-5.90
2022-12-19T12:48:29.906Z,-5.80
2022-12-19T12:51:02.578Z,-6.00
2022-12-19T12:53:55.254Z,-5.70
2022-12-19T12:56:32.775Z,-5.80
2022-12-19T13:02:42.704Z,-5.80
2022-12-19T13:18:24.038Z,-5.80
2022-12-19T13:26:19.654Z,-5.80
2022-12-19T13:28:33.192Z,-5.80
2022-12-19T13:34:58.611Z,-5.00
2022-12-19T13:39:59.855Z,-5.90
2022-12-19T13:45:20.818Z,-6.00
2022-12-19T13:55:28.349Z,-5.80
2022-12-19T14:54:13.316Z,-5.20
2022-12-19T14:54:40.845Z,-6.10
2022-12-19T14:56:56.016Z,-6.00
2022-12-19T14:59:38.319Z,-5.80
2022-12-19T15:02:27.899Z,-6.00
2022-12-19T15:05:04.196Z,-6.10
2022-12-19T15:07:46.763Z,-5.90
2022-12-19T15:11:06.265Z,-5.90
2022-12-19T15:14:52.306Z,-6.00
2022-12-19T15:38:54.345Z,-5.90
2022-12-19T16:01:51.585Z,-5.80
2022-12-19T16:15:23.973Z,-5.80
2022-12-19T16:18:28.137Z,-5.80
2022-12-19T16:21:41.036Z,-5.70
2022-12-19T16:25:34.846Z,-4.70
2022-12-19T16:28:29.579Z,-5.70
2022-12-19T16:31:30.285Z,-5.50
2022-12-19T16:34:22.587Z,-5.60
2022-12-19T16:37:32.938Z,-5.70
2022-12-19T16:40:15.201Z,-5.70
2022-12-19T16:43:30.456Z,-5.70
2022-12-19T16:49:35.954Z,-5.40
2022-12-19T17:01:06.393Z,-6.10
2022-12-19T18:07:52.094Z,-5.30
2022-12-19T18:11:35.393Z,-5.30
2022-12-19T18:23:54.215Z,-4.90
2022-12-19T18:26:54.449Z,-4.10
2022-12-19T18:33:35.585Z,-4.80
2022-12-19T20:06:08.283Z,-4.50
2022-12-19T21:03:50.380Z,-4.10
2022-12-19T21:12:09.973Z,-4.10
2022-12-19T22:13:52.433Z,-3.20
2022-12-19T22:21:25.505Z,-3.30
2022-12-19T23:02:27.378Z,-3.20
2022-12-19T23:10:37.268Z,-3.00
2022-12-19T23:58:53.940Z,-2.50
